Monticello Municipal Ellis Field
KLLQ : rendu visible

Aérodrome :











RETROUVEZ-NOUS SUR...

 
LOGIN :

S'inscrire | Disclaimer

   EN    FR    IT 

 









Légende :    VFR   VFR Marginal   IFR   IFR Intensif   IFR Très Intensif
Visi : 
Plafond : 
>= 8 km
>= 3000ft
5 à 8 km
1000 à 3000 ft
1500m à 5 km
500 à 1000 ft
800 à 1500m
200 à 500 ft
< 800m
< 200 ft
Symboles :   Orages  Brouillard  Fortes neiges  Fortes précipitations  Vent > 20 kt






- Altitude de l'aérodrome : 270 ft


KLLQ - Monticello Municipal Ellis Field

DERNIER METAR :
  • 210153Z AUTO 00000KT 10SM CLR 00/M06 A3054 RMK AO2 SLP343 T00001061

METARs EXPIRÉS :
  • 210053Z AUTO 00000KT 10SM CLR 01/M06 A3054 RMK AO2 SLP344 T00111061
  • 202353Z AUTO 03004KT 10SM CLR 02/M07 A3053 RMK AO2 SLP339 T00221072 10056 20022 55006

TAF KLLQ
Valide du 21 à 00h jusqu'au 22 à 00h UTC


202332Z 2100/2124 04007KT P6SM SKC
FM211500 06008KT P6SM FEW250



MET'MAP, la Météo Aéronautique d'un coup d'oeil ! - Copyright ORBIFLY Décembre 2007 - Disclaimer

ORBIFLY MET'MAP TEAM :

Programmation & Développement : Alexandra Zaïnal
Sur une idée originale de : Baudouin d'Aumeries
Assistance à la programmation : Marc-Olivier Méhu
Soutien technique & logistique : Manuel Goepfert

Contact : metmap@orbifly.com




SOURCES & CREDITS :

   NOAA       Earth
Advisory